sensor_id;sensor_type;location;lat;lon;timestamp;temperature;humidity
46037;DHT22;31769;49.304;8.428;2022-09-20T00:01:03;10.30;99.90
46037;DHT22;31769;49.304;8.428;2022-09-20T00:04:03;10.30;99.90
46037;DHT22;31769;49.304;8.428;2022-09-20T00:07:06;10.30;99.90
46037;DHT22;31769;49.304;8.428;2022-09-20T00:10:06;10.40;99.90
46037;DHT22;31769;49.304;8.428;2022-09-20T00:13:10;10.40;99.90
46037;DHT22;31769;49.304;8.428;2022-09-20T00:16:23;10.40;99.90
46037;DHT22;31769;49.304;8.428;2022-09-20T00:19:24;10.40;99.90
46037;DHT22;31769;49.304;8.428;2022-09-20T00:22:25;10.40;99.90
46037;DHT22;31769;49.304;8.428;2022-09-20T00:25:26;10.40;99.90
46037;DHT22;31769;49.304;8.428;2022-09-20T00:28:28;10.40;99.90
46037;DHT22;31769;49.304;8.428;2022-09-20T00:31:29;10.30;99.90
46037;DHT22;31769;49.304;8.428;2022-09-20T00:34:29;10.30;99.90
46037;DHT22;31769;49.304;8.428;2022-09-20T00:37:48;10.30;99.90
46037;DHT22;31769;49.304;8.428;2022-09-20T00:40:49;10.30;99.90
46037;DHT22;31769;49.304;8.428;2022-09-20T00:43:51;10.30;99.90
46037;DHT22;31769;49.304;8.428;2022-09-20T00:46:51;10.30;99.90
46037;DHT22;31769;49.304;8.428;2022-09-20T00:49:57;10.20;99.90
46037;DHT22;31769;49.304;8.428;2022-09-20T00:53:25;10.30;99.90
46037;DHT22;31769;49.304;8.428;2022-09-20T00:56:35;10.30;99.90
46037;DHT22;31769;49.304;8.428;2022-09-20T00:59:39;10.40;99.90
46037;DHT22;31769;49.304;8.428;2022-09-20T01:02:47;10.30;99.90
46037;DHT22;31769;49.304;8.428;2022-09-20T01:05:52;10.30;99.90
46037;DHT22;31769;49.304;8.428;2022-09-20T01:08:55;10.30;99.90
46037;DHT22;31769;49.304;8.428;2022-09-20T01:11:57;10.20;99.90
46037;DHT22;31769;49.304;8.428;2022-09-20T01:15:05;10.20;99.90
46037;DHT22;31769;49.304;8.428;2022-09-20T01:18:08;10.20;99.90
46037;DHT22;31769;49.304;8.428;2022-09-20T01:21:09;10.20;99.90
46037;DHT22;31769;49.304;8.428;2022-09-20T01:24:26;10.30;99.90
46037;DHT22;31769;49.304;8.428;2022-09-20T01:27:43;10.30;99.90
46037;DHT22;31769;49.304;8.428;2022-09-20T01:34:22;10.30;99.90
46037;DHT22;31769;49.304;8.428;2022-09-20T01:37:58;10.30;99.90
46037;DHT22;31769;49.304;8.428;2022-09-20T01:44:04;10.40;99.90
46037;DHT22;31769;49.304;8.428;2022-09-20T01:58:05;10.50;99.90
46037;DHT22;31769;49.304;8.428;2022-09-20T02:08:14;10.50;99.90
46037;DHT22;31769;49.304;8.428;2022-09-20T02:11:41;10.60;99.90
46037;DHT22;31769;49.304;8.428;2022-09-20T02:25:54;10.40;99.90
46037;DHT22;31769;49.304;8.428;2022-09-20T02:39:16;10.80;99.90
46037;DHT22;31769;49.304;8.428;2022-09-20T02:42:37;10.70;99.90
46037;DHT22;31769;49.304;8.428;2022-09-20T02:46:25;10.70;99.90
46037;DHT22;31769;49.304;8.428;2022-09-20T02:49:44;10.50;99.90
46037;DHT22;31769;49.304;8.428;2022-09-20T02:56:33;10.50;99.90
46037;DHT22;31769;49.304;8.428;2022-09-20T02:59:58;10.60;99.90
46037;DHT22;31769;49.304;8.428;2022-09-20T03:03:12;10.50;99.90
46037;DHT22;31769;49.304;8.428;2022-09-20T03:06:22;10.50;99.90
46037;DHT22;31769;49.304;8.428;2022-09-20T03:09:48;10.50;99.90
46037;DHT22;31769;49.304;8.428;2022-09-20T03:13:25;10.60;99.90
46037;DHT22;31769;49.304;8.428;2022-09-20T03:16:57;10.60;99.90
46037;DHT22;31769;49.304;8.428;2022-09-20T03:20:19;10.60;99.90
46037;DHT22;31769;49.304;8.428;2022-09-20T03:30:48;11.20;99.90
46037;DHT22;31769;49.304;8.428;2022-09-20T03:33:55;10.40;99.90
46037;DHT22;31769;49.304;8.428;2022-09-20T03:40:18;10.20;99.90
46037;DHT22;31769;49.304;8.428;2022-09-20T03:44:24;10.50;99.90
46037;DHT22;31769;49.304;8.428;2022-09-20T03:54:01;10.60;99.90
46037;DHT22;31769;49.304;8.428;2022-09-20T04:01:00;10.50;99.90
46037;DHT22;31769;49.304;8.428;2022-09-20T04:05:01;10.40;99.90
46037;DHT22;31769;49.304;8.428;2022-09-20T04:11:15;10.50;99.90
46037;DHT22;31769;49.304;8.428;2022-09-20T04:17:48;10.60;99.90
46037;DHT22;31769;49.304;8.428;2022-09-20T04:24:22;10.70;99.90
46037;DHT22;31769;49.304;8.428;2022-09-20T04:27:45;10.80;99.90
46037;DHT22;31769;49.304;8.428;2022-09-20T04:30:52;10.80;99.90
46037;DHT22;31769;49.304;8.428;2022-09-20T04:33:56;10.80;99.90
46037;DHT22;31769;49.304;8.428;2022-09-20T04:37:01;10.80;99.90
46037;DHT22;31769;49.304;8.428;2022-09-20T05:18:17;10.70;99.90
46037;DHT22;31769;49.304;8.428;2022-09-20T05:25:10;10.70;99.90
46037;DHT22;31769;49.304;8.428;2022-09-20T05:32:05;10.70;99.90
46037;DHT22;31769;49.304;8.428;2022-09-20T05:42:24;10.70;99.90
46037;DHT22;31769;49.304;8.428;2022-09-20T05:49:02;11.20;99.90
46037;DHT22;31769;49.304;8.428;2022-09-20T05:59:17;11.40;99.90
46037;DHT22;31769;49.304;8.428;2022-09-20T06:02:46;11.60;99.90
46037;DHT22;31769;49.304;8.428;2022-09-20T06:06:17;11.70;99.90
46037;DHT22;31769;49.304;8.428;2022-09-20T06:16:01;12.20;99.90
46037;DHT22;31769;49.304;8.428;2022-09-20T06:19:17;12.30;99.90
46037;DHT22;31769;49.304;8.428;2022-09-20T06:22:24;12.40;99.90
46037;DHT22;31769;49.304;8.428;2022-09-20T06:25:38;12.50;99.90
46037;DHT22;31769;49.304;8.428;2022-09-20T06:28:49;12.50;99.90
46037;DHT22;31769;49.304;8.428;2022-09-20T06:31:52;12.50;99.90
46037;DHT22;31769;49.304;8.428;2022-09-20T06:34:53;12.30;99.90
46037;DHT22;31769;49.304;8.428;2022-09-20T06:38:45;12.20;99.90
46037;DHT22;31769;49.304;8.428;2022-09-20T06:41:44;12.30;99.90
46037;DHT22;31769;49.304;8.428;2022-09-20T06:44:45;12.40;99.90
46037;DHT22;31769;49.304;8.428;2022-09-20T06:47:46;12.10;99.90
46037;DHT22;31769;49.304;8.428;2022-09-20T06:50:47;12.20;99.90
46037;DHT22;31769;49.304;8.428;2022-09-20T06:53:48;12.20;99.90
46037;DHT22;31769;49.304;8.428;2022-09-20T06:56:49;12.20;99.90
46037;DHT22;31769;49.304;8.428;2022-09-20T06:59:50;12.30;99.90
46037;DHT22;31769;49.304;8.428;2022-09-20T07:02:51;12.50;99.90
46037;DHT22;31769;49.304;8.428;2022-09-20T07:05:53;12.40;99.90
46037;DHT22;31769;49.304;8.428;2022-09-20T07:08:54;12.20;99.90
46037;DHT22;31769;49.304;8.428;2022-09-20T07:11:55;12.40;99.90
46037;DHT22;31769;49.304;8.428;2022-09-20T07:14:58;12.70;99.90
46037;DHT22;31769;49.304;8.428;2022-09-20T07:17:59;13.10;99.90
46037;DHT22;31769;49.304;8.428;2022-09-20T07:21:00;13.40;99.90
46037;DHT22;31769;49.304;8.428;2022-09-20T07:24:01;13.70;99.90
46037;DHT22;31769;49.304;8.428;2022-09-20T07:27:04;13.80;99.90
46037;DHT22;31769;49.304;8.428;2022-09-20T07:30:06;14.00;99.90
46037;DHT22;31769;49.304;8.428;2022-09-20T07:33:07;14.20;99.90
46037;DHT22;31769;49.304;8.428;2022-09-20T07:36:09;14.50;99.90
46037;DHT22;31769;49.304;8.428;2022-09-20T07:39:11;14.80;99.90
46037;DHT22;31769;49.304;8.428;2022-09-20T07:42:13;15.00;99.90
46037;DHT22;31769;49.304;8.428;2022-09-20T07:45:13;15.20;99.90
46037;DHT22;31769;49.304;8.428;2022-09-20T07:48:14;15.40;99.90
46037;DHT22;31769;49.304;8.428;2022-09-20T07:51:15;15.60;99.90
46037;DHT22;31769;49.304;8.428;2022-09-20T07:54:17;15.50;99.90
46037;DHT22;31769;49.304;8.428;2022-09-20T07:57:18;15.40;99.90
46037;DHT22;31769;49.304;8.428;2022-09-20T08:00:19;15.40;99.90
46037;DHT22;31769;49.304;8.428;2022-09-20T08:03:21;15.20;99.90
46037;DHT22;31769;49.304;8.428;2022-09-20T08:06:22;15.40;99.90
46037;DHT22;31769;49.304;8.428;2022-09-20T08:09:23;15.60;99.90
46037;DHT22;31769;49.304;8.428;2022-09-20T08:12:24;15.80;99.90
46037;DHT22;31769;49.304;8.428;2022-09-20T08:15:26;15.90;99.90
46037;DHT22;31769;49.304;8.428;2022-09-20T08:18:27;15.80;99.90
46037;DHT22;31769;49.304;8.428;2022-09-20T08:21:31;15.60;99.90
46037;DHT22;31769;49.304;8.428;2022-09-20T08:24:32;15.80;99.90
46037;DHT22;31769;49.304;8.428;2022-09-20T08:27:32;16.00;99.90
46037;DHT22;31769;49.304;8.428;2022-09-20T08:30:33;15.90;99.90
46037;DHT22;31769;49.304;8.428;2022-09-20T08:33:35;15.40;99.90
46037;DHT22;31769;49.304;8.428;2022-09-20T08:36:42;15.10;99.90
46037;DHT22;31769;49.304;8.428;2022-09-20T08:39:49;15.00;99.90
46037;DHT22;31769;49.304;8.428;2022-09-20T08:42:50;15.10;99.90
46037;DHT22;31769;49.304;8.428;2022-09-20T08:45:56;15.40;99.90
46037;DHT22;31769;49.304;8.428;2022-09-20T08:48:58;15.30;99.90
46037;DHT22;31769;49.304;8.428;2022-09-20T08:51:59;15.70;99.90
46037;DHT22;31769;49.304;8.428;2022-09-20T08:55:26;16.30;99.90
46037;DHT22;31769;49.304;8.428;2022-09-20T08:58:27;16.70;99.90
46037;DHT22;31769;49.304;8.428;2022-09-20T09:01:28;16.80;99.90
46037;DHT22;31769;49.304;8.428;2022-09-20T09:04:35;17.00;99.90
46037;DHT22;31769;49.304;8.428;2022-09-20T09:07:36;17.10;99.90
46037;DHT22;31769;49.304;8.428;2022-09-20T09:10:38;17.30;99.90
46037;DHT22;31769;49.304;8.428;2022-09-20T09:13:50;17.10;99.90
46037;DHT22;31769;49.304;8.428;2022-09-20T09:16:53;17.00;99.90
46037;DHT22;31769;49.304;8.428;2022-09-20T09:20:18;16.80;99.90
46037;DHT22;31769;49.304;8.428;2022-09-20T09:23:25;16.90;99.90
46037;DHT22;31769;49.304;8.428;2022-09-20T09:26:26;17.20;99.90
46037;DHT22;31769;49.304;8.428;2022-09-20T09:29:28;17.50;99.90
46037;DHT22;31769;49.304;8.428;2022-09-20T09:32:30;17.60;99.90
46037;DHT22;31769;49.304;8.428;2022-09-20T09:35:34;17.90;99.90
46037;DHT22;31769;49.304;8.428;2022-09-20T09:38:37;17.90;99.90
46037;DHT22;31769;49.304;8.428;2022-09-20T09:41:38;17.80;99.90
46037;DHT22;31769;49.304;8.428;2022-09-20T09:44:39;17.90;99.90
46037;DHT22;31769;49.304;8.428;2022-09-20T09:47:40;18.10;99.90
46037;DHT22;31769;49.304;8.428;2022-09-20T09:50:41;18.20;99.90
46037;DHT22;31769;49.304;8.428;2022-09-20T09:53:43;18.20;99.90
46037;DHT22;31769;49.304;8.428;2022-09-20T09:57:09;18.10;99.90
46037;DHT22;31769;49.304;8.428;2022-09-20T10:00:16;17.80;99.90
46037;DHT22;31769;49.304;8.428;2022-09-20T10:03:24;17.60;99.90
46037;DHT22;31769;49.304;8.428;2022-09-20T10:13:36;17.00;99.90
46037;DHT22;31769;49.304;8.428;2022-09-20T10:42:46;17.50;99.90
46037;DHT22;31769;49.304;8.428;2022-09-20T11:02:37;16.70;99.90
46037;DHT22;31769;49.304;8.428;2022-09-20T11:05:54;16.60;99.90
46037;DHT22;31769;49.304;8.428;2022-09-20T11:08:59;16.40;99.90
46037;DHT22;31769;49.304;8.428;2022-09-20T11:12:11;16.80;99.90
46037;DHT22;31769;49.304;8.428;2022-09-20T11:15:24;17.30;99.90
46037;DHT22;31769;49.304;8.428;2022-09-20T11:18:34;17.30;99.90
46037;DHT22;31769;49.304;8.428;2022-09-20T11:28:00;15.40;99.90
46037;DHT22;31769;49.304;8.428;2022-09-20T11:34:20;15.30;99.90
46037;DHT22;31769;49.304;8.428;2022-09-20T11:37:26;15.10;99.90
46037;DHT22;31769;49.304;8.428;2022-09-20T11:40:37;15.40;99.90
46037;DHT22;31769;49.304;8.428;2022-09-20T11:43:40;15.70;99.90
46037;DHT22;31769;49.304;8.428;2022-09-20T11:46:59;15.90;99.90
46037;DHT22;31769;49.304;8.428;2022-09-20T11:56:32;18.90;99.90
46037;DHT22;31769;49.304;8.428;2022-09-20T11:59:37;19.70;95.60
46037;DHT22;31769;49.304;8.428;2022-09-20T12:02:49;20.10;96.30
46037;DHT22;31769;49.304;8.428;2022-09-20T12:05:59;21.60;93.80
46037;DHT22;31769;49.304;8.428;2022-09-20T12:09:17;22.00;92.10
46037;DHT22;31769;49.304;8.428;2022-09-20T12:12:38;22.30;90.50
46037;DHT22;31769;49.304;8.428;2022-09-20T12:15:41;23.80;81.20
46037;DHT22;31769;49.304;8.428;2022-09-20T12:25:35;21.00;86.80
46037;DHT22;31769;49.304;8.428;2022-09-20T12:28:39;19.90;90.50
46037;DHT22;31769;49.304;8.428;2022-09-20T12:31:47;19.60;90.40
46037;DHT22;31769;49.304;8.428;2022-09-20T12:34:48;19.70;92.20
46037;DHT22;31769;49.304;8.428;2022-09-20T12:37:48;20.40;87.50
46037;DHT22;31769;49.304;8.428;2022-09-20T12:47:36;20.00;90.10
46037;DHT22;31769;49.304;8.428;2022-09-20T12:50:37;20.30;89.00
46037;DHT22;31769;49.304;8.428;2022-09-20T12:54:01;20.50;86.40
46037;DHT22;31769;49.304;8.428;2022-09-20T12:57:25;20.70;88.20
46037;DHT22;31769;49.304;8.428;2022-09-20T13:03:47;24.70;74.00
46037;DHT22;31769;49.304;8.428;2022-09-20T13:06:48;25.10;70.10
46037;DHT22;31769;49.304;8.428;2022-09-20T13:09:50;25.20;68.20
46037;DHT22;31769;49.304;8.428;2022-09-20T13:12:55;28.60;61.20
46037;DHT22;31769;49.304;8.428;2022-09-20T13:15:57;29.60;52.30
46037;DHT22;31769;49.304;8.428;2022-09-20T13:22:24;34.70;46.20
46037;DHT22;31769;49.304;8.428;2022-09-20T13:25:26;37.40;42.40
46037;DHT22;31769;49.304;8.428;2022-09-20T13:28:34;38.30;39.10
46037;DHT22;31769;49.304;8.428;2022-09-20T13:31:36;37.70;39.30
46037;DHT22;31769;49.304;8.428;2022-09-20T13:34:37;35.30;40.00
46037;DHT22;31769;49.304;8.428;2022-09-20T13:37:51;35.70;40.20
46037;DHT22;31769;49.304;8.428;2022-09-20T13:41:04;33.90;40.90
46037;DHT22;31769;49.304;8.428;2022-09-20T13:44:17;32.40;42.20
46037;DHT22;31769;49.304;8.428;2022-09-20T13:47:27;31.70;43.40
46037;DHT22;31769;49.304;8.428;2022-09-20T13:50:32;31.10;44.40
46037;DHT22;31769;49.304;8.428;2022-09-20T13:53:34;28.70;46.30
46037;DHT22;31769;49.304;8.428;2022-09-20T13:56:35;26.40;49.90
46037;DHT22;31769;49.304;8.428;2022-09-20T13:59:44;25.10;51.30
46037;DHT22;31769;49.304;8.428;2022-09-20T14:02:47;24.70;52.60
46037;DHT22;31769;49.304;8.428;2022-09-20T14:06:00;24.20;53.10
46037;DHT22;31769;49.304;8.428;2022-09-20T14:09:04;23.70;54.10
46037;DHT22;31769;49.304;8.428;2022-09-20T14:12:06;23.10;54.50
46037;DHT22;31769;49.304;8.428;2022-09-20T14:15:09;22.90;55.90
46037;DHT22;31769;49.304;8.428;2022-09-20T14:18:16;22.50;56.60
46037;DHT22;31769;49.304;8.428;2022-09-20T14:21:23;22.20;58.30
46037;DHT22;31769;49.304;8.428;2022-09-20T14:24:33;21.30;59.60
46037;DHT22;31769;49.304;8.428;2022-09-20T14:27:34;20.80;61.80
46037;DHT22;31769;49.304;8.428;2022-09-20T14:30:36;20.10;62.80
46037;DHT22;31769;49.304;8.428;2022-09-20T14:33:40;19.70;65.40
46037;DHT22;31769;49.304;8.428;2022-09-20T14:36:42;19.80;66.30
46037;DHT22;31769;49.304;8.428;2022-09-20T14:39:49;19.90;66.60
46037;DHT22;31769;49.304;8.428;2022-09-20T14:42:59;20.60;66.20
46037;DHT22;31769;49.304;8.428;2022-09-20T14:46:04;20.60;66.00
46037;DHT22;31769;49.304;8.428;2022-09-20T14:55:26;20.30;67.60
46037;DHT22;31769;49.304;8.428;2022-09-20T14:58:32;20.30;67.80
46037;DHT22;31769;49.304;8.428;2022-09-20T15:01:34;20.90;66.60
46037;DHT22;31769;49.304;8.428;2022-09-20T15:04:39;21.00;66.30
46037;DHT22;31769;49.304;8.428;2022-09-20T15:07:40;21.80;64.90
46037;DHT22;31769;49.304;8.428;2022-09-20T15:10:40;23.40;60.90
46037;DHT22;31769;49.304;8.428;2022-09-20T15:13:41;24.10;59.30
46037;DHT22;31769;49.304;8.428;2022-09-20T15:16:42;23.50;59.90
46037;DHT22;31769;49.304;8.428;2022-09-20T15:19:43;22.50;62.20
46037;DHT22;31769;49.304;8.428;2022-09-20T15:22:44;21.20;64.70
46037;DHT22;31769;49.304;8.428;2022-09-20T15:25:49;20.50;67.30
46037;DHT22;31769;49.304;8.428;2022-09-20T15:28:50;20.40;69.10
46037;DHT22;31769;49.304;8.428;2022-09-20T15:31:51;20.10;71.60
46037;DHT22;31769;49.304;8.428;2022-09-20T15:34:52;19.80;72.50
46037;DHT22;31769;49.304;8.428;2022-09-20T15:37:52;19.50;73.90
46037;DHT22;31769;49.304;8.428;2022-09-20T15:40:53;19.50;74.70
46037;DHT22;31769;49.304;8.428;2022-09-20T15:43:54;19.70;75.50
46037;DHT22;31769;49.304;8.428;2022-09-20T15:46:54;20.30;74.50
46037;DHT22;31769;49.304;8.428;2022-09-20T15:49:55;21.00;73.00
46037;DHT22;31769;49.304;8.428;2022-09-20T15:52:58;21.00;72.00
46037;DHT22;31769;49.304;8.428;2022-09-20T15:56:00;20.70;72.30
46037;DHT22;31769;49.304;8.428;2022-09-20T15:59:04;20.50;73.00
46037;DHT22;31769;49.304;8.428;2022-09-20T16:02:05;22.70;68.70
46037;DHT22;31769;49.304;8.428;2022-09-20T16:05:06;25.50;61.00
46037;DHT22;31769;49.304;8.428;2022-09-20T16:08:09;27.80;56.00
46037;DHT22;31769;49.304;8.428;2022-09-20T16:11:15;27.90;53.30
46037;DHT22;31769;49.304;8.428;2022-09-20T16:14:16;29.50;51.20
46037;DHT22;31769;49.304;8.428;2022-09-20T16:17:17;30.80;48.80
46037;DHT22;31769;49.304;8.428;2022-09-20T16:20:17;32.10;47.30
46037;DHT22;31769;49.304;8.428;2022-09-20T16:23:18;29.90;48.00
46037;DHT22;31769;49.304;8.428;2022-09-20T16:26:20;29.10;49.10
46037;DHT22;31769;49.304;8.428;2022-09-20T16:29:21;29.40;48.80
46037;DHT22;31769;49.304;8.428;2022-09-20T16:32:23;28.80;49.00
46037;DHT22;31769;49.304;8.428;2022-09-20T16:35:23;29.10;49.00
46037;DHT22;31769;49.304;8.428;2022-09-20T16:38:24;26.90;51.60
46037;DHT22;31769;49.304;8.428;2022-09-20T16:41:26;24.70;54.90
46037;DHT22;31769;49.304;8.428;2022-09-20T16:44:28;22.90;59.10
46037;DHT22;31769;49.304;8.428;2022-09-20T16:47:29;21.20;63.50
46037;DHT22;31769;49.304;8.428;2022-09-20T16:50:30;19.90;68.60
46037;DHT22;31769;49.304;8.428;2022-09-20T16:53:31;19.10;71.70
46037;DHT22;31769;49.304;8.428;2022-09-20T16:56:33;18.60;74.40
46037;DHT22;31769;49.304;8.428;2022-09-20T16:59:34;18.20;77.20
46037;DHT22;31769;49.304;8.428;2022-09-20T17:02:34;17.90;79.40
46037;DHT22;31769;49.304;8.428;2022-09-20T17:05:35;17.60;82.80
46037;DHT22;31769;49.304;8.428;2022-09-20T17:08:37;17.30;85.20
46037;DHT22;31769;49.304;8.428;2022-09-20T17:11:42;17.10;88.20
46037;DHT22;31769;49.304;8.428;2022-09-20T17:14:45;16.80;90.60
46037;DHT22;31769;49.304;8.428;2022-09-20T17:17:45;16.60;92.30
46037;DHT22;31769;49.304;8.428;2022-09-20T17:20:46;16.50;93.60
46037;DHT22;31769;49.304;8.428;2022-09-20T17:23:52;16.40;94.80
46037;DHT22;31769;49.304;8.428;2022-09-20T17:26:56;16.40;96.50
46037;DHT22;31769;49.304;8.428;2022-09-20T17:29:56;16.30;97.50
46037;DHT22;31769;49.304;8.428;2022-09-20T17:32:57;16.20;98.60
46037;DHT22;31769;49.304;8.428;2022-09-20T17:35:58;16.10;99.70
46037;DHT22;31769;49.304;8.428;2022-09-20T17:39:01;15.90;99.90
46037;DHT22;31769;49.304;8.428;2022-09-20T17:42:02;15.90;99.90
46037;DHT22;31769;49.304;8.428;2022-09-20T17:45:03;15.80;99.90
46037;DHT22;31769;49.304;8.428;2022-09-20T17:48:04;15.80;99.90
46037;DHT22;31769;49.304;8.428;2022-09-20T17:51:10;15.80;99.90
46037;DHT22;31769;49.304;8.428;2022-09-20T17:54:11;15.70;99.90
46037;DHT22;31769;49.304;8.428;2022-09-20T17:57:13;15.70;99.90
46037;DHT22;31769;49.304;8.428;2022-09-20T18:00:13;15.60;99.90
46037;DHT22;31769;49.304;8.428;2022-09-20T18:03:15;15.60;99.90
46037;DHT22;31769;49.304;8.428;2022-09-20T18:06:20;15.50;99.90
46037;DHT22;31769;49.304;8.428;2022-09-20T18:09:23;15.50;99.90
46037;DHT22;31769;49.304;8.428;2022-09-20T18:12:24;15.40;99.90
46037;DHT22;31769;49.304;8.428;2022-09-20T18:15:24;15.30;99.90
46037;DHT22;31769;49.304;8.428;2022-09-20T18:18:25;15.20;99.90
46037;DHT22;31769;49.304;8.428;2022-09-20T18:21:28;15.10;99.90
46037;DHT22;31769;49.304;8.428;2022-09-20T18:24:29;15.10;99.90
46037;DHT22;31769;49.304;8.428;2022-09-20T18:27:30;15.10;99.90
46037;DHT22;31769;49.304;8.428;2022-09-20T18:30:33;15.00;99.90
46037;DHT22;31769;49.304;8.428;2022-09-20T18:33:34;14.90;99.90
46037;DHT22;31769;49.304;8.428;2022-09-20T18:36:37;14.80;99.90
46037;DHT22;31769;49.304;8.428;2022-09-20T18:39:38;14.70;99.90
46037;DHT22;31769;49.304;8.428;2022-09-20T18:42:39;14.60;99.90
46037;DHT22;31769;49.304;8.428;2022-09-20T18:45:49;14.60;99.90
46037;DHT22;31769;49.304;8.428;2022-09-20T18:48:56;14.50;99.90
46037;DHT22;31769;49.304;8.428;2022-09-20T18:51:57;14.40;99.90
46037;DHT22;31769;49.304;8.428;2022-09-20T18:54:58;14.40;99.90
46037;DHT22;31769;49.304;8.428;2022-09-20T18:57:59;14.30;99.90
46037;DHT22;31769;49.304;8.428;2022-09-20T19:01:16;14.30;99.90
46037;DHT22;31769;49.304;8.428;2022-09-20T19:07:39;14.20;99.90
46037;DHT22;31769;49.304;8.428;2022-09-20T19:10:50;14.10;99.90
46037;DHT22;31769;49.304;8.428;2022-09-20T19:13:59;14.10;99.90
46037;DHT22;31769;49.304;8.428;2022-09-20T19:17:00;14.10;99.90
46037;DHT22;31769;49.304;8.428;2022-09-20T19:20:18;14.00;99.90
46037;DHT22;31769;49.304;8.428;2022-09-20T19:26:29;13.90;99.90
46037;DHT22;31769;49.304;8.428;2022-09-20T19:29:31;13.90;99.90
46037;DHT22;31769;49.304;8.428;2022-09-20T19:32:32;13.90;99.90
46037;DHT22;31769;49.304;8.428;2022-09-20T19:35:35;14.00;99.90
46037;DHT22;31769;49.304;8.428;2022-09-20T19:45:35;13.90;99.90
46037;DHT22;31769;49.304;8.428;2022-09-20T19:48:39;13.80;99.90
46037;DHT22;31769;49.304;8.428;2022-09-20T19:51:44;13.80;99.90
46037;DHT22;31769;49.304;8.428;2022-09-20T19:54:45;13.70;99.90
46037;DHT22;31769;49.304;8.428;2022-09-20T19:57:46;13.70;99.90
46037;DHT22;31769;49.304;8.428;2022-09-20T20:00:47;13.70;99.90
46037;DHT22;31769;49.304;8.428;2022-09-20T20:03:52;13.70;99.90
46037;DHT22;31769;49.304;8.428;2022-09-20T20:07:18;13.70;99.90
46037;DHT22;31769;49.304;8.428;2022-09-20T20:11:34;13.60;99.90
46037;DHT22;31769;49.304;8.428;2022-09-20T20:20:42;13.60;99.90
46037;DHT22;31769;49.304;8.428;2022-09-20T20:26:48;13.50;99.90
46037;DHT22;31769;49.304;8.428;2022-09-20T20:29:49;13.50;99.90
46037;DHT22;31769;49.304;8.428;2022-09-20T20:32:54;13.50;99.90
46037;DHT22;31769;49.304;8.428;2022-09-20T20:35:58;13.50;99.90
46037;DHT22;31769;49.304;8.428;2022-09-20T20:38:59;13.50;99.90
46037;DHT22;31769;49.304;8.428;2022-09-20T20:42:02;13.40;99.90
46037;DHT22;31769;49.304;8.428;2022-09-20T20:45:03;13.40;99.90
46037;DHT22;31769;49.304;8.428;2022-09-20T20:48:05;13.30;99.90
46037;DHT22;31769;49.304;8.428;2022-09-20T20:54:09;13.30;99.90
46037;DHT22;31769;49.304;8.428;2022-09-20T20:57:10;13.30;99.90
46037;DHT22;31769;49.304;8.428;2022-09-20T21:00:11;13.30;99.90
46037;DHT22;31769;49.304;8.428;2022-09-20T21:03:12;13.20;99.90
46037;DHT22;31769;49.304;8.428;2022-09-20T21:06:14;13.10;99.90
46037;DHT22;31769;49.304;8.428;2022-09-20T21:09:15;13.00;99.90
46037;DHT22;31769;49.304;8.428;2022-09-20T21:12:16;12.80;99.90
46037;DHT22;31769;49.304;8.428;2022-09-20T21:15:17;12.70;99.90
46037;DHT22;31769;49.304;8.428;2022-09-20T21:18:18;12.60;99.90
46037;DHT22;31769;49.304;8.428;2022-09-20T21:21:25;12.60;99.90
46037;DHT22;31769;49.304;8.428;2022-09-20T21:24:26;12.50;99.90
46037;DHT22;31769;49.304;8.428;2022-09-20T21:27:26;12.60;99.90
46037;DHT22;31769;49.304;8.428;2022-09-20T21:30:29;12.60;99.90
46037;DHT22;31769;49.304;8.428;2022-09-20T21:33:31;13.20;99.90
46037;DHT22;31769;49.304;8.428;2022-09-20T21:36:32;12.60;99.90
46037;DHT22;31769;49.304;8.428;2022-09-20T21:39:33;12.40;99.90
46037;DHT22;31769;49.304;8.428;2022-09-20T21:42:33;12.50;99.90
46037;DHT22;31769;49.304;8.428;2022-09-20T21:45:38;12.70;99.90
46037;DHT22;31769;49.304;8.428;2022-09-20T21:48:39;12.60;99.90
46037;DHT22;31769;49.304;8.428;2022-09-20T21:51:41;12.60;99.90
46037;DHT22;31769;49.304;8.428;2022-09-20T21:54:42;12.60;99.90
46037;DHT22;31769;49.304;8.428;2022-09-20T21:57:45;12.50;99.90
46037;DHT22;31769;49.304;8.428;2022-09-20T22:00:55;12.50;99.90
46037;DHT22;31769;49.304;8.428;2022-09-20T22:03:57;12.40;99.90
46037;DHT22;31769;49.304;8.428;2022-09-20T22:07:00;12.30;99.90
46037;DHT22;31769;49.304;8.428;2022-09-20T22:10:03;12.30;99.90
46037;DHT22;31769;49.304;8.428;2022-09-20T22:13:04;12.20;99.90
46037;DHT22;31769;49.304;8.428;2022-09-20T22:16:07;12.20;99.90
46037;DHT22;31769;49.304;8.428;2022-09-20T22:19:10;12.20;99.90
46037;DHT22;31769;49.304;8.428;2022-09-20T22:22:11;12.20;99.90
46037;DHT22;31769;49.304;8.428;2022-09-20T22:25:12;12.10;99.90
46037;DHT22;31769;49.304;8.428;2022-09-20T22:28:12;12.00;99.90
46037;DHT22;31769;49.304;8.428;2022-09-20T22:31:15;12.00;99.90
46037;DHT22;31769;49.304;8.428;2022-09-20T22:34:20;11.90;99.90
46037;DHT22;31769;49.304;8.428;2022-09-20T22:37:21;11.90;99.90
46037;DHT22;31769;49.304;8.428;2022-09-20T22:40:21;11.80;99.90
46037;DHT22;31769;49.304;8.428;2022-09-20T22:43:22;11.80;99.90
46037;DHT22;31769;49.304;8.428;2022-09-20T22:46:25;11.70;99.90
46037;DHT22;31769;49.304;8.428;2022-09-20T22:49:26;11.70;99.90
46037;DHT22;31769;49.304;8.428;2022-09-20T22:52:27;11.80;99.90
46037;DHT22;31769;49.304;8.428;2022-09-20T22:55:28;11.60;99.90
46037;DHT22;31769;49.304;8.428;2022-09-20T22:58:30;11.60;99.90
46037;DHT22;31769;49.304;8.428;2022-09-20T23:01:36;11.60;99.90
46037;DHT22;31769;49.304;8.428;2022-09-20T23:04:37;11.60;99.90
46037;DHT22;31769;49.304;8.428;2022-09-20T23:07:38;11.60;99.90
46037;DHT22;31769;49.304;8.428;2022-09-20T23:10:39;11.50;99.90
46037;DHT22;31769;49.304;8.428;2022-09-20T23:13:40;11.50;99.90
46037;DHT22;31769;49.304;8.428;2022-09-20T23:16:41;11.40;99.90
46037;DHT22;31769;49.304;8.428;2022-09-20T23:19:42;11.40;99.90
46037;DHT22;31769;49.304;8.428;2022-09-20T23:22:43;11.30;99.90
46037;DHT22;31769;49.304;8.428;2022-09-20T23:25:43;11.20;99.90
46037;DHT22;31769;49.304;8.428;2022-09-20T23:28:46;11.20;99.90
46037;DHT22;31769;49.304;8.428;2022-09-20T23:31:51;11.10;99.90
46037;DHT22;31769;49.304;8.428;2022-09-20T23:34:51;11.00;99.90
46037;DHT22;31769;49.304;8.428;2022-09-20T23:37:54;11.00;99.90
46037;DHT22;31769;49.304;8.428;2022-09-20T23:41:04;10.90;99.90
46037;DHT22;31769;49.304;8.428;2022-09-20T23:44:05;11.00;99.90
46037;DHT22;31769;49.304;8.428;2022-09-20T23:47:06;10.90;99.90
46037;DHT22;31769;49.304;8.428;2022-09-20T23:50:07;10.80;99.90
46037;DHT22;31769;49.304;8.428;2022-09-20T23:53:08;10.60;99.90
46037;DHT22;31769;49.304;8.428;2022-09-20T23:56:10;10.50;99.90
46037;DHT22;31769;49.304;8.428;2022-09-20T23:59:10;10.50;99.90
